Time;durP1;ratioP1;P1;durP2;ratioP2;P2;SDS_P1;SDS_P2;PMS_P1;PMS_P2;Temp;Humidity;BMP_temperature;BMP_pressure;BME280_temperature;BME280_humidity;BME280_pressure;Samples;Min_cycle;Max_cycle;Signal;HPM_P1;HPM_P2
2020/12/17 00:01:55;;;;;;;15.15;11.02;;;9.40;99.90;;;;;;5035506;28;20060;-93
2020/12/17 00:04:22;;;;;;;16.10;11.65;;;9.40;99.90;;;;;;5036426;28;20112;-95
2020/12/17 00:06:54;;;;;;;15.68;11.63;;;9.40;99.90;;;;;;5036112;28;20045;-95
2020/12/17 00:09:26;;;;;;;13.23;11.27;;;9.40;99.90;;;;;;5043423;28;20040;-94
2020/12/17 00:11:56;;;;;;;14.40;11.05;;;9.30;99.90;;;;;;5054523;28;20443;-96
2020/12/17 00:14:28;;;;;;;16.52;12.10;;;9.30;99.90;;;;;;5054861;28;20021;-95
2020/12/17 00:16:57;;;;;;;16.30;11.05;;;9.30;99.90;;;;;;5056244;28;20056;-94
2020/12/17 00:19:22;;;;;;;16.45;11.65;;;9.30;99.90;;;;;;5035122;28;20508;-93
2020/12/17 00:21:48;;;;;;;14.75;11.00;;;9.30;99.90;;;;;;5034803;28;20030;-94
2020/12/17 00:24:14;;;;;;;15.75;12.23;;;9.30;99.90;;;;;;5034985;28;20032;-94
2020/12/17 00:26:49;;;;;;;13.32;10.68;;;9.20;99.90;;;;;;5035088;28;20013;-94
2020/12/17 00:29:15;;;;;;;13.30;10.95;;;9.30;99.90;;;;;;5035241;28;20087;-94
2020/12/17 00:31:42;;;;;;;14.80;11.20;;;9.30;99.90;;;;;;5036048;28;20044;-94
2020/12/17 00:34:08;;;;;;;13.50;11.00;;;9.30;99.90;;;;;;5035813;28;20030;-94
2020/12/17 00:36:35;;;;;;;14.00;10.88;;;9.30;99.90;;;;;;5034577;28;20030;-94
2020/12/17 00:39:03;;;;;;;12.38;9.52;;;9.30;99.90;;;;;;5035587;28;20021;-93
2020/12/17 00:41:32;;;;;;;12.05;10.35;;;9.40;99.90;;;;;;5035071;28;20065;-93
2020/12/17 00:43:58;;;;;;;13.75;10.27;;;9.40;99.90;;;;;;5035626;28;20032;-93
2020/12/17 00:46:30;;;;;;;12.82;9.80;;;9.40;99.90;;;;;;5035919;28;20021;-94
2020/12/17 00:48:56;;;;;;;11.70;9.55;;;9.40;99.90;;;;;;5034781;28;20022;-94
2020/12/17 00:51:24;;;;;;;14.80;10.15;;;9.50;99.90;;;;;;5035076;28;20029;-94
2020/12/17 00:53:50;;;;;;;12.52;10.10;;;9.50;99.90;;;;;;5034115;28;20026;-94
2020/12/17 00:56:17;;;;;;;11.80;9.13;;;9.50;99.90;;;;;;5033706;28;20032;-94
2020/12/17 00:58:43;;;;;;;13.13;10.18;;;9.50;99.90;;;;;;5033931;28;20024;-93
2020/12/17 01:01:09;;;;;;;13.38;9.57;;;9.50;99.90;;;;;;5033397;28;20029;-94
2020/12/17 01:03:35;;;;;;;11.80;9.15;;;9.50;99.90;;;;;;5034172;28;20112;-94
2020/12/17 01:06:02;;;;;;;12.93;10.43;;;9.50;99.90;;;;;;5033700;28;20453;-93
2020/12/17 01:08:28;;;;;;;11.63;10.07;;;9.50;99.90;;;;;;5034794;28;20041;-94
2020/12/17 01:10:54;;;;;;;15.57;10.65;;;9.50;99.90;;;;;;5034019;28;20025;-94
2020/12/17 01:13:20;;;;;;;14.25;10.68;;;9.50;99.90;;;;;;5033817;28;20116;-92
2020/12/17 01:15:47;;;;;;;12.60;9.73;;;9.50;99.90;;;;;;5033546;28;20024;-94
2020/12/17 01:18:13;;;;;;;13.25;9.73;;;9.50;99.90;;;;;;5033971;28;20061;-92
2020/12/17 01:20:38;;;;;;;12.80;9.82;;;9.60;99.90;;;;;;5033631;28;20028;-94
2020/12/17 01:23:04;;;;;;;12.55;9.27;;;9.60;99.90;;;;;;5033543;28;20034;-94
2020/12/17 01:25:32;;;;;;;12.90;10.13;;;9.60;99.90;;;;;;5033537;28;20036;-93
2020/12/17 01:28:09;;;;;;;11.50;9.30;;;9.60;99.90;;;;;;5033783;28;20539;-93
2020/12/17 01:30:35;;;;;;;12.60;10.27;;;9.70;99.90;;;;;;5033259;28;20389;-93
2020/12/17 01:33:09;;;;;;;13.43;9.73;;;9.70;99.90;;;;;;5034335;28;20028;-93
2020/12/17 01:35:35;;;;;;;15.63;10.15;;;9.70;99.90;;;;;;5033505;28;20021;-93
2020/12/17 01:38:02;;;;;;;12.80;9.68;;;9.70;99.90;;;;;;5049722;28;20030;-94
2020/12/17 01:40:28;;;;;;;12.23;9.07;;;9.70;99.90;;;;;;5036723;28;20040;-93
2020/12/17 01:42:54;;;;;;;12.48;9.88;;;9.70;99.90;;;;;;5037506;28;20034;-96
2020/12/17 01:45:20;;;;;;;12.52;9.32;;;9.80;99.90;;;;;;5037017;28;20018;-95
2020/12/17 01:47:48;;;;;;;12.27;9.85;;;9.80;99.90;;;;;;5037208;28;20048;-94
2020/12/17 01:50:20;;;;;;;12.25;8.95;;;9.80;99.90;;;;;;5037139;28;20018;-94
2020/12/17 01:52:49;;;;;;;11.85;9.30;;;9.80;99.90;;;;;;5051313;28;20032;-94
2020/12/17 01:55:18;;;;;;;12.30;9.45;;;9.80;99.90;;;;;;5073720;28;20560;-94
2020/12/17 01:57:46;;;;;;;13.05;10.05;;;9.70;99.90;;;;;;5056840;28;20487;-94
2020/12/17 02:00:19;;;;;;;14.77;10.38;;;9.80;99.90;;;;;;5057145;28;20056;-92
2020/12/17 02:02:47;;;;;;;12.35;9.93;;;9.70;99.90;;;;;;5057343;28;20067;-94
2020/12/17 02:05:13;;;;;;;11.70;9.25;;;9.60;99.90;;;;;;5057168;28;20080;-95
2020/12/17 02:07:43;;;;;;;13.18;10.38;;;9.60;99.90;;;;;;5055788;28;20060;-94
2020/12/17 02:10:09;;;;;;;13.70;10.60;;;9.50;99.90;;;;;;5055644;28;20028;-95
2020/12/17 02:12:46;;;;;;;12.82;9.98;;;9.50;99.90;;;;;;5056025;28;20082;-94
2020/12/17 02:15:12;;;;;;;13.10;10.60;;;9.50;99.90;;;;;;5056202;28;20033;-94
2020/12/17 02:17:42;;;;;;;14.70;11.13;;;9.40;99.90;;;;;;5056753;28;20023;-94
2020/12/17 02:20:11;;;;;;;15.15;10.85;;;9.40;99.90;;;;;;5065862;28;20100;-93
2020/12/17 02:22:40;;;;;;;14.32;10.80;;;9.30;99.90;;;;;;5057449;28;20067;-95
2020/12/17 02:25:10;;;;;;;12.82;10.23;;;9.30;99.90;;;;;;5056561;28;20125;-94
2020/12/17 02:27:37;;;;;;;12.45;10.73;;;9.30;99.90;;;;;;5056086;28;20034;-94
2020/12/17 02:30:05;;;;;;;13.65;11.02;;;9.30;99.90;;;;;;5056010;28;20036;-95
2020/12/17 02:32:31;;;;;;;14.40;11.07;;;9.30;99.90;;;;;;5055786;28;20075;-95
2020/12/17 02:34:57;;;;;;;14.80;12.15;;;9.30;99.90;;;;;;5073221;28;20021;-94
2020/12/17 02:37:22;;;;;;;14.50;11.25;;;9.30;99.90;;;;;;5072819;28;20033;-93
2020/12/17 02:39:48;;;;;;;13.77;11.30;;;9.30;99.90;;;;;;5072292;28;20021;-93
2020/12/17 02:42:16;;;;;;;13.65;11.27;;;9.30;99.90;;;;;;5055352;28;20071;-94
2020/12/17 02:44:42;;;;;;;14.10;11.55;;;9.20;99.90;;;;;;5055316;28;20021;-93
2020/12/17 02:47:08;;;;;;;15.25;11.20;;;9.30;99.90;;;;;;5071673;28;20032;-93
2020/12/17 02:49:39;;;;;;;14.52;10.82;;;9.30;99.90;;;;;;5071541;28;20032;-93
2020/12/17 02:52:11;;;;;;;13.20;10.60;;;9.20;99.90;;;;;;5071025;28;20497;-93
2020/12/17 02:54:40;;;;;;;15.63;10.88;;;9.30;99.90;;;;;;5072019;28;20029;-93
2020/12/17 02:57:09;;;;;;;13.40;10.95;;;9.30;99.90;;;;;;5070827;28;20499;-93
2020/12/17 02:59:41;;;;;;;13.15;10.98;;;9.30;99.90;;;;;;5056904;28;20051;-93
2020/12/17 03:02:11;;;;;;;14.25;11.15;;;9.30;99.90;;;;;;5072342;28;20047;-93
2020/12/17 03:04:37;;;;;;;17.00;12.07;;;9.30;99.90;;;;;;5072561;28;20092;-96
2020/12/17 03:07:05;;;;;;;16.10;11.82;;;9.30;99.90;;;;;;5072351;28;20088;-94
2020/12/17 03:09:34;;;;;;;16.42;12.27;;;9.30;99.90;;;;;;5072673;28;20021;-93
2020/12/17 03:12:05;;;;;;;12.88;10.88;;;9.30;99.90;;;;;;5056560;28;20035;-94
2020/12/17 03:14:31;;;;;;;14.68;11.60;;;9.30;99.90;;;;;;5072199;28;20205;-94
2020/12/17 03:17:00;;;;;;;11.55;10.07;;;9.30;99.90;;;;;;5055529;28;20095;-94
2020/12/17 03:19:26;;;;;;;14.43;11.30;;;9.30;99.90;;;;;;5056609;28;20029;-93
2020/12/17 03:21:55;;;;;;;14.45;11.23;;;9.30;99.90;;;;;;5072493;28;20033;-93
2020/12/17 03:24:32;;;;;;;12.75;10.43;;;9.30;99.90;;;;;;5051952;28;20029;-93
2020/12/17 03:26:58;;;;;;;13.07;10.65;;;9.30;99.90;;;;;;5072289;28;20468;-94
2020/12/17 03:29:28;;;;;;;12.90;10.77;;;9.40;99.90;;;;;;5056090;28;20032;-93
2020/12/17 03:31:54;;;;;;;14.27;10.27;;;9.40;99.90;;;;;;5071327;28;20503;-93
2020/12/17 03:34:21;;;;;;;14.45;10.68;;;9.40;99.90;;;;;;5070551;28;20033;-94
2020/12/17 03:36:50;;;;;;;13.73;10.00;;;9.40;99.90;;;;;;5071559;28;20028;-94
2020/12/17 03:39:16;;;;;;;12.82;10.07;;;9.40;99.90;;;;;;5056227;28;20029;-94
2020/12/17 03:41:41;;;;;;;13.88;10.00;;;9.40;99.90;;;;;;5072236;28;20036;-94
2020/12/17 03:44:10;;;;;;;11.57;9.52;;;9.40;99.90;;;;;;5071801;28;20524;-93
2020/12/17 03:46:39;;;;;;;13.95;10.05;;;9.40;99.90;;;;;;5071890;28;20485;-93
2020/12/17 03:49:05;;;;;;;17.40;11.20;;;9.50;99.90;;;;;;5071664;28;20021;-94
2020/12/17 03:51:31;;;;;;;13.07;10.30;;;9.40;99.90;;;;;;5071836;28;20035;-92
2020/12/17 03:53:58;;;;;;;11.95;10.27;;;9.40;99.90;;;;;;5056269;28;20139;-92
2020/12/17 03:56:26;;;;;;;13.30;10.60;;;9.40;99.90;;;;;;5071506;28;20083;-92
2020/12/17 03:58:52;;;;;;;15.02;11.25;;;9.40;99.90;;;;;;5070847;28;20075;-91
2020/12/17 04:01:17;;;;;;;14.15;10.73;;;9.30;99.90;;;;;;5054169;28;20017;-91
2020/12/17 04:03:43;;;;;;;12.73;10.27;;;9.30;99.90;;;;;;5070846;28;20484;-91
2020/12/17 04:06:09;;;;;;;13.43;10.70;;;9.30;99.90;;;;;;5070695;28;20029;-90
2020/12/17 04:08:34;;;;;;;12.65;10.00;;;9.30;99.90;;;;;;5070457;28;20051;-91
2020/12/17 04:11:00;;;;;;;13.65;10.90;;;9.30;99.90;;;;;;5054167;28;20029;-91
2020/12/17 04:13:25;;;;;;;14.57;11.43;;;9.30;99.90;;;;;;5070978;28;20099;-92
2020/12/17 04:15:51;;;;;;;13.30;10.50;;;9.20;99.90;;;;;;5055206;28;20023;-92
2020/12/17 04:18:17;;;;;;;15.43;11.45;;;9.20;99.90;;;;;;5055136;28;20379;-92
2020/12/17 04:20:44;;;;;;;19.55;12.05;;;9.30;99.90;;;;;;5053999;28;20076;-92
2020/12/17 04:23:10;;;;;;;14.80;10.57;;;9.20;99.90;;;;;;5070514;28;20036;-91
2020/12/17 04:25:35;;;;;;;14.13;11.07;;;9.30;99.90;;;;;;5070254;28;20147;-92
2020/12/17 04:28:01;;;;;;;14.50;11.35;;;9.30;99.90;;;;;;5053922;28;20021;-91
2020/12/17 04:30:26;;;;;;;16.52;11.82;;;9.20;99.90;;;;;;5054752;28;20464;-92
2020/12/17 04:32:52;;;;;;;16.42;12.20;;;9.30;99.90;;;;;;5057663;28;20024;-92
2020/12/17 04:35:18;;;;;;;14.15;12.20;;;9.30;99.90;;;;;;5071904;28;20043;-92
2020/12/17 04:37:44;;;;;;;16.38;12.63;;;9.30;99.90;;;;;;5067629;28;20040;-93
2020/12/17 04:40:09;;;;;;;16.75;12.30;;;9.30;99.90;;;;;;5089715;28;20025;-92
2020/12/17 04:42:36;;;;;;;17.20;12.60;;;9.30;99.90;;;;;;5068844;28;20033;-92
2020/12/17 04:45:02;;;;;;;17.73;12.52;;;9.30;99.90;;;;;;5056515;28;20037;-92
2020/12/17 04:47:31;;;;;;;15.55;12.23;;;9.30;99.90;;;;;;5059966;28;20021;-94
2020/12/17 04:50:08;;;;;;;17.65;12.93;;;9.30;99.90;;;;;;5055503;28;20028;-92
2020/12/17 04:52:38;;;;;;;17.00;11.15;;;9.30;99.90;;;;;;5070488;28;20032;-92
2020/12/17 04:55:06;;;;;;;14.45;11.18;;;9.30;99.90;;;;;;5070844;28;20021;-90
2020/12/17 04:57:35;;;;;;;16.35;12.68;;;9.30;99.90;;;;;;5070743;28;20029;-92
2020/12/17 05:00:02;;;;;;;15.82;12.10;;;9.30;99.90;;;;;;5054113;28;20021;-92
2020/12/17 05:02:33;;;;;;;19.77;13.70;;;9.30;99.90;;;;;;5070264;28;20029;-91
2020/12/17 05:05:00;;;;;;;18.55;13.07;;;9.30;99.90;;;;;;5069764;28;20037;-91
2020/12/17 05:07:25;;;;;;;18.65;13.68;;;9.30;99.90;;;;;;5069986;28;20539;-91
2020/12/17 05:09:52;;;;;;;18.38;13.00;;;9.30;99.90;;;;;;5070133;28;20021;-91
2020/12/17 05:12:18;;;;;;;12.80;10.18;;;9.30;99.90;;;;;;5052960;28;20059;-90
2020/12/17 05:14:50;;;;;;;15.35;11.82;;;9.30;99.90;;;;;;5072301;28;20051;-91
2020/12/17 05:17:19;;;;;;;16.92;12.65;;;9.40;99.90;;;;;;5058597;28;20025;-90
2020/12/17 05:19:49;;;;;;;16.85;13.00;;;9.40;99.90;;;;;;5056890;28;20033;-90
2020/12/17 05:22:21;;;;;;;17.17;13.80;;;9.40;99.90;;;;;;5058211;28;20524;-91
2020/12/17 05:24:50;;;;;;;17.60;13.10;;;9.40;99.90;;;;;;5074035;28;20033;-90
2020/12/17 05:27:19;;;;;;;18.25;14.13;;;9.40;99.90;;;;;;5073184;28;20028;-91
2020/12/17 05:29:45;;;;;;;16.45;12.20;;;9.40;99.90;;;;;;5073747;28;20021;-90
2020/12/17 05:32:23;;;;;;;15.07;10.95;;;9.40;99.90;;;;;;5057040;28;20033;-89
2020/12/17 05:35:03;;;;;;;20.25;12.90;;;9.40;99.90;;;;;;5073352;28;20051;-89
2020/12/17 05:37:33;;;;;;;14.55;11.55;;;9.40;99.90;;;;;;5070461;28;20029;-90
2020/12/17 05:40:02;;;;;;;15.40;12.45;;;9.40;99.90;;;;;;5057317;28;20044;-90
2020/12/17 05:42:38;;;;;;;17.25;12.40;;;9.40;99.90;;;;;;5057019;28;20029;-90
2020/12/17 05:45:23;;;;;;;13.32;11.25;;;9.40;99.90;;;;;;5067765;28;20033;-90
2020/12/17 05:48:11;;;;;;;12.82;10.80;;;9.40;99.90;;;;;;5073261;28;20025;-91
2020/12/17 05:51:06;;;;;;;13.07;11.52;;;9.40;99.90;;;;;;5051464;28;20041;-90
2020/12/17 05:53:39;;;;;;;20.48;13.05;;;9.40;99.90;;;;;;5044603;28;20044;-91
2020/12/17 05:56:11;;;;;;;14.52;12.27;;;9.40;99.90;;;;;;5057960;28;20025;-91
2020/12/17 05:58:41;;;;;;;14.20;12.27;;;9.40;99.90;;;;;;5073496;28;20033;-89
2020/12/17 06:01:15;;;;;;;16.80;12.82;;;9.40;99.90;;;;;;5057998;28;20029;-90
2020/12/17 06:03:41;;;;;;;16.27;12.65;;;9.40;99.90;;;;;;5073235;28;20034;-90
2020/12/17 06:06:10;;;;;;;16.10;13.00;;;9.40;99.90;;;;;;5056835;28;20039;-91
2020/12/17 06:08:40;;;;;;;14.20;12.70;;;9.40;99.90;;;;;;5054952;28;20110;-93
2020/12/17 06:11:14;;;;;;;16.70;13.23;;;9.50;99.90;;;;;;5072250;28;20097;-94
2020/12/17 06:13:44;;;;;;;15.70;14.05;;;9.50;99.90;;;;;;5071976;28;20024;-92
2020/12/17 06:16:11;;;;;;;17.88;13.55;;;9.50;99.90;;;;;;5071389;28;20037;-93
2020/12/17 06:18:48;;;;;;;15.68;13.40;;;9.50;99.90;;;;;;5056215;28;20087;-92
2020/12/17 06:21:16;;;;;;;15.55;12.80;;;9.40;99.90;;;;;;5071732;28;20499;-92
2020/12/17 06:23:41;;;;;;;16.92;14.07;;;9.50;99.90;;;;;;5054931;28;20036;-92
2020/12/17 06:26:20;;;;;;;17.17;15.38;;;9.40;99.90;;;;;;5055475;28;20068;-91
2020/12/17 06:28:47;;;;;;;16.55;14.73;;;9.40;99.90;;;;;;5041881;28;20115;-91
2020/12/17 06:31:19;;;;;;;19.10;16.10;;;9.40;99.90;;;;;;5054364;28;20032;-91
2020/12/17 06:33:48;;;;;;;21.73;15.70;;;9.50;99.90;;;;;;5055255;28;20021;-91
2020/12/17 06:36:28;;;;;;;17.33;15.02;;;9.40;99.90;;;;;;5054840;28;20048;-91
2020/12/17 06:38:54;;;;;;;18.80;16.15;;;9.40;99.90;;;;;;5054132;28;20218;-91
2020/12/17 06:41:29;;;;;;;16.92;15.10;;;9.40;99.90;;;;;;5054961;28;20037;-92
2020/12/17 06:43:55;;;;;;;23.08;17.25;;;9.40;99.90;;;;;;5054095;28;20047;-91
2020/12/17 06:46:38;;;;;;;19.88;17.00;;;9.40;99.90;;;;;;5055764;28;20029;-90
2020/12/17 06:49:24;;;;;;;20.55;18.33;;;9.40;99.90;;;;;;5055250;28;20021;-92
2020/12/17 06:52:08;;;;;;;23.33;19.13;;;9.40;99.90;;;;;;5055464;28;20037;-90
2020/12/17 06:54:43;;;;;;;21.40;18.50;;;9.30;99.90;;;;;;5039170;28;20029;-90
2020/12/17 06:57:21;;;;;;;23.40;18.92;;;9.30;99.90;;;;;;5055403;28;20025;-91
2020/12/17 07:00:08;;;;;;;24.52;19.98;;;9.20;99.90;;;;;;5054297;28;20029;-90
2020/12/17 07:02:43;;;;;;;22.05;18.02;;;9.20;99.90;;;;;;5053852;28;20112;-92
2020/12/17 07:05:30;;;;;;;24.63;20.48;;;9.20;99.90;;;;;;5055059;28;20112;-93
2020/12/17 07:08:00;;;;;;;23.30;19.23;;;9.20;99.90;;;;;;5069543;28;20106;-91
2020/12/17 07:10:27;;;;;;;24.52;20.77;;;9.20;99.90;;;;;;5036645;28;20086;-91
2020/12/17 07:12:56;;;;;;;24.38;20.88;;;9.20;99.90;;;;;;5053199;28;20037;-91
2020/12/17 07:15:41;;;;;;;21.83;18.73;;;9.20;99.90;;;;;;5037392;28;20029;-94
2020/12/17 07:18:25;;;;;;;26.63;21.52;;;9.20;99.90;;;;;;5069938;28;20051;-91
2020/12/17 07:21:32;;;;;;;24.92;21.35;;;9.20;99.90;;;;;;5053798;28;20425;-91
2020/12/17 07:24:38;;;;;;;24.90;20.60;;;9.20;99.90;;;;;;5055629;28;20389;-92
2020/12/17 07:27:11;;;;;;;25.65;21.33;;;9.20;99.90;;;;;;5044220;28;20476;-91
2020/12/17 07:29:49;;;;;;;29.17;24.33;;;9.20;99.90;;;;;;5054258;28;20480;-91
2020/12/17 07:39:08;;;;;;;27.58;22.23;;;9.20;99.90;;;;;;5048463;28;20094;-92
2020/12/17 07:41:34;;;;;;;;;;;9.20;99.90;;;;;;5039674;28;20041;-92
2020/12/17 07:44:06;;;;;;;29.27;22.88;;;9.20;99.90;;;;;;5070730;28;19909;-92
2020/12/17 07:46:46;;;;;;;29.70;25.02;;;9.20;99.90;;;;;;5070199;28;20222;-91
2020/12/17 07:49:30;;;;;;;30.50;24.55;;;9.20;99.90;;;;;;5053063;28;20021;-91
2020/12/17 07:51:57;;;;;;;25.73;21.17;;;9.20;99.90;;;;;;5054038;28;20036;-93
2020/12/17 07:54:40;;;;;;;30.38;24.67;;;9.20;99.90;;;;;;5055193;28;20024;-92
2020/12/17 07:57:06;;;;;;;27.55;22.75;;;9.20;99.90;;;;;;5054100;28;20059;-92
2020/12/17 07:59:31;;;;;;;26.42;21.63;;;9.20;99.90;;;;;;5055213;28;20116;-91
2020/12/17 08:02:07;;;;;;;30.35;24.30;;;9.20;99.90;;;;;;5053985;28;20028;-91
2020/12/17 08:04:59;;;;;;;29.95;25.45;;;9.20;99.90;;;;;;5071464;28;20037;-90
2020/12/17 08:07:28;;;;;;;30.23;25.27;;;9.20;99.90;;;;;;4889983;28;4786205;-90
2020/12/17 08:10:15;;;;;;;31.42;25.63;;;9.20;99.90;;;;;;5057240;28;20041;-92
2020/12/17 08:12:42;;;;;;;30.38;25.35;;;9.20;99.90;;;;;;5056667;28;20029;-92
2020/12/17 08:22:09;;;;;;;31.80;27.20;;;9.20;99.90;;;;;;5058314;28;20037;-90
2020/12/17 08:24:41;;;;;;;33.88;28.63;;;9.20;99.90;;;;;;5072600;28;20512;-91
2020/12/17 08:27:38;;;;;;;33.47;27.80;;;9.20;99.90;;;;;;5056678;28;20053;-89
2020/12/17 08:30:19;;;;;;;31.65;26.55;;;9.20;99.90;;;;;;5054767;28;20033;-88
2020/12/17 08:33:15;;;;;;;29.55;24.75;;;9.20;99.90;;;;;;5055299;28;20147;-90
2020/12/17 08:35:41;;;;;;;31.77;27.00;;;9.20;99.90;;;;;;5071576;28;20068;-87
2020/12/17 08:38:10;;;;;;;32.38;26.20;;;9.20;99.90;;;;;;5056627;28;20056;-89
2020/12/17 08:40:42;;;;;;;29.33;25.65;;;9.20;99.90;;;;;;5055897;28;20036;-90
2020/12/17 08:43:17;;;;;;;30.63;25.88;;;9.20;99.90;;;;;;5034645;28;20067;-90
2020/12/17 08:45:51;;;;;;;28.77;25.08;;;9.30;99.90;;;;;;5057334;28;20043;-89
2020/12/17 08:48:19;;;;;;;29.15;24.17;;;9.30;99.90;;;;;;5073374;28;20036;-89
2020/12/17 08:51:33;;;;;;;30.50;24.67;;;9.30;99.90;;;;;;5055787;28;20116;-90
2020/12/17 08:54:02;;;;;;;27.92;22.15;;;9.30;99.90;;;;;;5056475;28;20063;-89
2020/12/17 08:56:28;;;;;;;30.38;24.33;;;9.30;99.90;;;;;;5055380;28;20025;-90
2020/12/17 08:59:05;;;;;;;25.15;21.08;;;9.30;99.90;;;;;;5055970;28;20090;-89
2020/12/17 09:01:38;;;;;;;28.13;22.02;;;9.30;99.90;;;;;;5072013;28;20032;-91
2020/12/17 09:04:09;;;;;;;28.27;22.80;;;9.30;99.90;;;;;;5073188;28;20193;-89
2020/12/17 09:06:37;;;;;;;33.20;24.25;;;9.30;99.90;;;;;;5074715;28;20457;-90
2020/12/17 09:09:25;;;;;;;29.77;23.75;;;9.30;99.90;;;;;;5075949;28;20031;-90
2020/12/17 09:11:55;;;;;;;27.83;21.77;;;9.30;99.90;;;;;;5075670;28;20123;-90
2020/12/17 09:14:36;;;;;;;26.55;21.40;;;9.20;99.90;;;;;;5061151;28;20021;-91
2020/12/17 09:17:16;;;;;;;25.35;20.90;;;9.30;99.90;;;;;;5082427;28;20028;-91
2020/12/17 09:20:16;;;;;;;29.52;23.00;;;9.30;99.90;;;;;;5073348;28;20017;-91
2020/12/17 09:22:49;;;;;;;26.83;20.50;;;9.30;99.90;;;;;;5074117;28;20033;-90
2020/12/17 09:25:27;;;;;;;26.35;21.20;;;9.30;99.90;;;;;;5083360;28;20111;-92
2020/12/17 09:29:03;;;;;;;;;;;;;;;;;;;;;
2020/12/17 09:31:58;;;;;;;29.02;21.33;;;9.30;99.90;;;;;;5034833;28;20397;-90
2020/12/17 09:34:27;;;;;;;24.48;19.95;;;9.40;99.90;;;;;;5017300;28;20041;-91
2020/12/17 09:37:16;;;;;;;23.65;19.73;;;9.40;99.90;;;;;;5034762;28;20151;-91
2020/12/17 09:39:59;;;;;;;22.77;17.52;;;9.40;99.90;;;;;;5017194;28;20099;-90
2020/12/17 09:42:48;;;;;;;20.42;15.98;;;9.40;99.90;;;;;;5016993;28;20033;-91
2020/12/17 09:45:42;;;;;;;20.42;15.88;;;9.30;99.90;;;;;;5024050;28;20040;-89
2020/12/17 09:48:23;;;;;;;19.35;16.02;;;9.30;99.90;;;;;;5051938;28;20037;-90
2020/12/17 09:51:47;;;;;;;19.70;15.18;;;9.30;99.90;;;;;;5074432;28;20032;-90
2020/12/17 09:54:39;;;;;;;;;;;9.40;99.90;;;;;;5073414;28;20051;-89
2020/12/17 09:57:25;;;;;;;16.75;14.48;;;9.70;99.90;;;;;;5057148;28;19909;-90
2020/12/17 10:00:09;;;;;;;;;;;;;;;;;;;;;
2020/12/17 10:16:21;;;;;;;14.85;10.88;;;11.20;99.90;;;;;;5057009;28;20056;-93
2020/12/17 10:18:58;;;;;;;;;;;;;;;;;;;;;
2020/12/17 10:21:24;;;;;;;12.98;10.30;;;10.90;99.90;;;;;;5058785;28;20028;-92
2020/12/17 10:23:54;;;;;;;13.63;9.13;;;10.50;99.90;;;;;;5056441;28;20072;-92
2020/12/17 10:26:30;;;;;;;13.32;9.15;;;10.30;99.90;;;;;;5058037;28;20076;-94
2020/12/17 10:29:29;;;;;;;14.43;9.80;;;10.10;99.90;;;;;;5057090;28;20029;-92
2020/12/17 10:31:56;;;;;;;14.70;9.35;;;10.00;99.90;;;;;;5031127;28;20071;-91
2020/12/17 10:34:27;;;;;;;12.38;9.25;;;9.90;99.90;;;;;;5049312;28;20048;-91
2020/12/17 10:37:01;;;;;;;15.32;9.88;;;9.90;99.90;;;;;;5076786;28;20035;-90
2020/12/17 10:39:49;;;;;;;14.85;9.05;;;9.90;99.90;;;;;;5057425;28;20511;-93
2020/12/17 10:42:45;;;;;;;13.98;9.43;;;9.90;99.90;;;;;;5039326;28;20033;-91
2020/12/17 10:45:38;;;;;;;;;;;;;;;;;;;;;
2020/12/17 10:48:06;;;;;;;14.65;9.30;;;10.10;99.90;;;;;;5038686;28;20544;-92
2020/12/17 10:50:40;;;;;;;11.77;8.60;;;10.00;99.90;;;;;;5020185;28;20061;-90
2020/12/17 10:53:13;;;;;;;14.75;9.00;;;10.00;99.90;;;;;;5019306;28;20474;-92
2020/12/17 10:55:51;;;;;;;16.33;9.30;;;10.00;99.90;;;;;;5038076;28;20120;-91
2020/12/17 10:58:19;;;;;;;12.93;8.70;;;10.10;99.90;;;;;;5045069;28;20078;-93
2020/12/17 11:01:14;;;;;;;13.45;10.13;;;10.20;99.90;;;;;;5060664;28;20035;-91
2020/12/17 11:03:44;;;;;;;14.48;8.88;;;10.30;99.90;;;;;;5065356;28;20033;-91
2020/12/17 11:06:19;;;;;;;12.00;9.27;;;10.40;99.90;;;;;;5061310;28;20461;-93
2020/12/17 11:08:45;;;;;;;14.68;9.27;;;10.90;99.90;;;;;;5056905;28;20037;-93
2020/12/17 11:11:16;;;;;;;13.93;8.55;;;11.60;99.90;;;;;;5059174;28;20025;-92
2020/12/17 11:13:50;;;;;;;13.50;8.75;;;12.20;99.90;;;;;;5057253;28;20025;-91
2020/12/17 11:16:27;;;;;;;;;;;;;;;;;;;;;
2020/12/17 11:19:00;;;;;;;12.77;6.97;;;13.10;99.90;;;;;;5056941;28;20037;-92
2020/12/17 11:21:29;;;;;;;9.30;6.65;;;12.90;99.90;;;;;;5059058;28;20035;-91
2020/12/17 11:24:25;;;;;;;10.32;6.50;;;12.70;99.90;;;;;;5059184;28;19912;-92
2020/12/17 11:26:54;;;;;;;10.52;6.57;;;12.60;99.90;;;;;;5058973;28;20041;-93
2020/12/17 11:29:30;;;;;;;8.43;5.47;;;12.90;99.90;;;;;;5058672;28;20045;-92
2020/12/17 11:32:26;;;;;;;;;;;;;;;;;;;;;
2020/12/17 11:35:05;;;;;;;;;;;;;;;;;;;;;
2020/12/17 11:37:43;;;;;;;10.35;5.53;;;14.10;99.90;;;;;;5056296;28;20379;-90
2020/12/17 11:40:20;;;;;;;12.75;5.32;;;14.00;99.90;;;;;;5020785;28;20037;-94
2020/12/17 11:43:56;;;;;;;10.60;5.63;;;13.20;99.90;;;;;;5044550;28;20033;-92
2020/12/17 11:46:20;;;;;;;14.07;6.80;;;12.40;99.90;;;;;;5058330;28;20123;-92
2020/12/17 11:49:06;;;;;;;11.30;6.75;;;11.70;99.90;;;;;;5059850;28;20037;-93
2020/12/17 11:51:35;;;;;;;9.05;6.25;;;11.40;99.90;;;;;;5058437;28;20021;-93
2020/12/17 11:54:39;;;;;;;12.43;7.03;;;11.10;99.90;;;;;;5041491;28;20041;-93
2020/12/17 11:57:06;;;;;;;15.02;6.85;;;10.90;99.90;;;;;;5036819;28;20059;-92
2020/12/17 11:59:38;;;;;;;14.05;7.45;;;10.80;99.90;;;;;;5069552;28;20388;-91
2020/12/17 12:02:13;;;;;;;12.75;8.25;;;10.80;99.90;;;;;;5063651;28;20039;-93
2020/12/17 12:04:40;;;;;;;12.18;7.20;;;10.70;99.90;;;;;;5063644;28;20088;-93
2020/12/17 12:07:09;;;;;;;11.55;7.05;;;10.70;99.90;;;;;;5025434;28;20119;-92
2020/12/17 12:09:51;;;;;;;12.23;7.68;;;10.70;99.90;;;;;;5028099;28;20039;-92
2020/12/17 12:12:20;;;;;;;12.00;6.95;;;10.80;99.90;;;;;;5047198;28;20059;-92
2020/12/17 12:14:49;;;;;;;11.40;6.45;;;11.00;99.90;;;;;;5056822;28;20509;-93
2020/12/17 12:17:29;;;;;;;12.88;7.50;;;11.20;99.90;;;;;;5022736;28;20037;-94
2020/12/17 12:20:00;;;;;;;11.75;7.13;;;11.20;99.90;;;;;;5031287;28;20113;-92
2020/12/17 12:22:45;;;;;;;15.25;7.30;;;11.10;99.90;;;;;;5049366;28;20036;-94
2020/12/17 12:25:35;;;;;;;17.85;8.43;;;11.00;99.90;;;;;;5059756;28;20094;-93
2020/12/17 12:28:10;;;;;;;11.27;7.22;;;11.00;99.90;;;;;;5050666;28;20036;-94
2020/12/17 12:30:49;;;;;;;;;;;;;;;;;;;;;
2020/12/17 12:33:27;;;;;;;14.40;7.05;;;10.80;99.90;;;;;;5053958;28;20037;-93
2020/12/17 12:35:55;;;;;;;12.70;7.25;;;10.70;99.90;;;;;;5042123;28;20063;-93
2020/12/17 12:38:42;;;;;;;11.35;7.00;;;10.70;99.90;;;;;;5035079;28;20460;-95
2020/12/17 12:41:50;;;;;;;;;;;;;;;;;;;;;
2020/12/17 12:44:18;;;;;;;9.85;5.82;;;10.70;99.90;;;;;;5058005;28;20560;-93
2020/12/17 12:47:22;;;;;;;;;;;;;;;;;;;;;
2020/12/17 12:49:58;;;;;;;11.45;6.35;;;10.70;99.90;;;;;;5037838;28;20092;-93
2020/12/17 12:52:25;;;;;;;11.07;6.65;;;10.70;99.90;;;;;;5054560;28;20369;-92
2020/12/17 12:55:01;;;;;;;12.73;6.22;;;10.70;99.90;;;;;;5051894;28;20045;-94
2020/12/17 12:57:31;;;;;;;10.55;5.75;;;10.70;99.90;;;;;;5037135;28;20033;-94
2020/12/17 13:00:04;;;;;;;12.63;5.80;;;10.70;99.90;;;;;;5030327;28;20068;-94
2020/12/17 13:02:31;;;;;;;9.90;6.20;;;10.70;99.90;;;;;;5037984;28;20571;-92
2020/12/17 13:08:19;;;;;;;10.65;6.60;;;10.80;99.90;;;;;;5055264;28;20045;-92
2020/12/17 13:11:21;;;;;;;13.05;5.65;;;10.80;99.90;;;;;;5044267;28;20456;-93
2020/12/17 13:17:09;;;;;;;;;;;;;;;;;;;;;
2020/12/17 13:19:35;;;;;;;13.25;6.25;;;10.70;99.90;;;;;;5041424;28;20101;-92
2020/12/17 13:22:18;;;;;;;;;;;;;;;;;;;;;
2020/12/17 13:25:05;;;;;;;10.77;5.70;;;10.60;99.90;;;;;;5036734;28;20120;-92
2020/12/17 13:28:11;;;;;;;;;;;;;;;;;;;;;
2020/12/17 13:31:06;;;;;;;12.13;5.35;;;10.60;99.90;;;;;;5040961;28;20121;-93
2020/12/17 13:33:41;;;;;;;9.73;5.00;;;10.60;99.90;;;;;;5041316;28;20033;-93
2020/12/17 13:36:11;;;;;;;12.18;5.28;;;10.60;99.90;;;;;;5043504;28;20559;-92
2020/12/17 13:39:01;;;;;;;14.27;5.57;;;10.60;99.90;;;;;;5028326;28;20087;-93
2020/12/17 13:41:40;;;;;;;9.38;4.82;;;10.60;99.90;;;;;;5028561;28;20040;-92
2020/12/17 13:44:24;;;;;;;10.85;4.43;;;10.60;99.90;;;;;;5027151;28;20048;-92
2020/12/17 13:47:06;;;;;;;10.48;4.70;;;10.60;99.90;;;;;;5007698;28;20038;-92
2020/12/17 13:50:10;;;;;;;;;;;;;;;;;;;;;
2020/12/17 13:52:56;;;;;;;13.43;4.25;;;10.60;99.90;;;;;;4976161;28;20129;-93
2020/12/17 13:55:32;;;;;;;;;;;;;;;;;;;;;
2020/12/17 13:58:19;;;;;;;10.13;4.90;;;10.60;99.90;;;;;;5043402;28;20033;-93
2020/12/17 14:01:00;;;;;;;;;;;;;;;;;;;;;
2020/12/17 14:03:29;;;;;;;9.15;3.70;;;10.60;99.90;;;;;;5051808;28;20053;-92
2020/12/17 14:06:07;;;;;;;8.15;3.60;;;10.50;99.90;;;;;;5041813;28;20033;-95
2020/12/17 14:08:55;;;;;;;9.93;3.35;;;10.50;99.90;;;;;;5041412;28;20025;-95